Ulverston, United Kingdom
Current Conditions -  °F | °C
As of 10:50 AM on Sunday 28 Dec 2014 (Local Time) from EGNH Reporting Station
Clear Clear  
Wind Chill: 36°   Ceiling: Unl
Heat Index: 36°   Visibility: 6mi
Dew Point: 34°   Wind: 3mph
Humidity: 93%   Direction: NA
Pressure: 30.53"   Gusts: NA
Location:  54.2°N, 3.1°W
Report Text: EGNH 281050Z VRB03KT CAVOK 02/01 Q1034
Loading
Personal Weather Stations






























Interactive Weather Map New forecast layout! Learn more

10-Day Weather Forecast

Advertisements
Track Severe Weather on mobile